Airfield :
LOGIN :

Register | Disclaimer

   EN    FR    IT 

 










Legend :    VFR   Marginal VFR   IFR   Intensive IFR   Very Intensive IFR
Visi :
Ceiling :
>= 8 km
>= 3000ft
5 to 8 km
1000 to 3000 ft
1500m to 5 km
500 to 1000 ft
800 to 1500m
200 to 500 ft
< 800m
< 200 ft
Symbols :   Thunderstorms  Fog  Heavy snow  Heavy precipitations  Wind > 20 kt
SIGMETs :     Misc.  Thunderstorms  Icing  Turbulence  Mountain Waves  Volcanic Ashes







- Airport Elevation : 461 ft
- IATA code : WIE


ETOU - Wiesbaden Army

CURRENT METAR :
  • 171056Z AUTO 13003KT 9999 CLR 07/00 A3028 RMK AO2 SLP261 T00690001 FZRANO $

EXPIRED METARs :
  • 170956Z AUTO 13003KT 9999 CLR 05/02 A3028 RMK AO2 SLP262 T00520015 FZRANO $
  • 170856Z AUTO 00000KT 9999 CLR 03/00 A3029 RMK AO2 SLP266 T00280004 50001 FZRANO $

TAF AMD TAF ETOU
Valid from the 16 at 13:00 until the 17 at 18:00 UTC


161410Z 1613/1718 VRB06KT 9999 SKC QNH3019INS TX15/1615Z TNM04/1706Z LAST NO AMDS AFT 1614 NEXT 1712
No reported NOTAMs for that airfield.



MET'MAP, your aeronautical weather chart ! - Copyright ORBIFLY December 2007 - Disclaimer

ORBIFLY MET'MAP TEAM :

Programming & Development : Alexandra Zaïnal
Concept & Development : Baudouin d'Aumeries
Co-Development & Prog : Marc-Olivier Méhu
Technical & hardware support : Manuel Goepfert

Contact : metmap@orbifly.com




SOURCES & CREDITS :

   NOAA